sensor_id;sensor_type;location;lat;lon;timestamp;P1;durP1;ratioP1;P2;durP2;ratioP2
36575;SDS011;45700;50.930;5.168;2023-01-16T00:03:45;0.10;;;0.10;;
36575;SDS011;45700;50.930;5.168;2023-01-16T00:07:46;0.38;;;0.38;;
36575;SDS011;45700;50.930;5.168;2023-01-16T00:11:47;0.00;;;0.00;;
36575;SDS011;45700;50.930;5.168;2023-01-16T00:15:48;0.00;;;0.00;;
36575;SDS011;45700;50.930;5.168;2023-01-16T00:19:50;0.00;;;0.00;;
36575;SDS011;45700;50.930;5.168;2023-01-16T00:23:52;0.08;;;0.08;;
36575;SDS011;45700;50.930;5.168;2023-01-16T00:27:53;0.20;;;0.20;;
36575;SDS011;45700;50.930;5.168;2023-01-16T00:31:54;0.17;;;0.10;;
36575;SDS011;45700;50.930;5.168;2023-01-16T00:35:55;0.00;;;0.00;;
36575;SDS011;45700;50.930;5.168;2023-01-16T00:39:56;0.00;;;0.00;;
36575;SDS011;45700;50.930;5.168;2023-01-16T00:43:57;0.00;;;0.00;;
36575;SDS011;45700;50.930;5.168;2023-01-16T00:47:59;0.00;;;0.00;;
36575;SDS011;45700;50.930;5.168;2023-01-16T00:52:00;0.00;;;0.00;;
36575;SDS011;45700;50.930;5.168;2023-01-16T00:56:01;0.20;;;0.20;;
36575;SDS011;45700;50.930;5.168;2023-01-16T01:00:02;0.10;;;0.10;;
36575;SDS011;45700;50.930;5.168;2023-01-16T01:04:03;2.47;;;0.73;;
36575;SDS011;45700;50.930;5.168;2023-01-16T01:08:05;0.10;;;0.10;;
36575;SDS011;45700;50.930;5.168;2023-01-16T01:12:06;0.00;;;0.00;;
36575;SDS011;45700;50.930;5.168;2023-01-16T01:16:07;0.63;;;0.50;;
36575;SDS011;45700;50.930;5.168;2023-01-16T01:20:08;0.00;;;0.00;;
36575;SDS011;45700;50.930;5.168;2023-01-16T01:24:10;0.13;;;0.13;;
36575;SDS011;45700;50.930;5.168;2023-01-16T01:28:11;0.00;;;0.00;;
36575;SDS011;45700;50.930;5.168;2023-01-16T01:32:12;0.13;;;0.13;;
36575;SDS011;45700;50.930;5.168;2023-01-16T01:36:13;0.10;;;0.10;;
36575;SDS011;45700;50.930;5.168;2023-01-16T01:40:14;0.10;;;0.10;;
36575;SDS011;45700;50.930;5.168;2023-01-16T01:48:36;0.10;;;0.10;;
36575;SDS011;45700;50.930;5.168;2023-01-16T01:52:39;0.20;;;0.20;;
36575;SDS011;45700;50.930;5.168;2023-01-16T01:56:42;0.10;;;0.10;;
36575;SDS011;45700;50.930;5.168;2023-01-16T02:00:44;9.48;;;0.80;;
36575;SDS011;45700;50.930;5.168;2023-01-16T02:04:46;0.00;;;0.00;;
36575;SDS011;45700;50.930;5.168;2023-01-16T02:08:47;3.55;;;1.20;;
36575;SDS011;45700;50.930;5.168;2023-01-16T02:12:51;0.00;;;0.00;;
36575;SDS011;45700;50.930;5.168;2023-01-16T02:16:55;0.20;;;0.20;;
36575;SDS011;45700;50.930;5.168;2023-01-16T02:25:40;0.00;;;0.00;;
36575;SDS011;45700;50.930;5.168;2023-01-16T02:46:48;0.10;;;0.10;;
36575;SDS011;45700;50.930;5.168;2023-01-16T02:51:36;0.20;;;0.20;;
36575;SDS011;45700;50.930;5.168;2023-01-16T02:55:34;0.20;;;0.20;;
36575;SDS011;45700;50.930;5.168;2023-01-16T02:59:36;0.00;;;0.00;;
36575;SDS011;45700;50.930;5.168;2023-01-16T03:03:50;0.00;;;0.00;;
36575;SDS011;45700;50.930;5.168;2023-01-16T03:16:18;0.10;;;0.10;;
36575;SDS011;45700;50.930;5.168;2023-01-16T03:29:15;0.00;;;0.00;;
36575;SDS011;45700;50.930;5.168;2023-01-16T03:37:35;0.00;;;0.00;;
36575;SDS011;45700;50.930;5.168;2023-01-16T03:41:40;0.00;;;0.00;;
36575;SDS011;45700;50.930;5.168;2023-01-16T03:45:49;0.00;;;0.00;;
36575;SDS011;45700;50.930;5.168;2023-01-16T03:49:53;0.20;;;0.20;;
36575;SDS011;45700;50.930;5.168;2023-01-16T03:54:04;0.10;;;0.10;;
36575;SDS011;45700;50.930;5.168;2023-01-16T03:58:08;0.10;;;0.10;;
36575;SDS011;45700;50.930;5.168;2023-01-16T04:06:13;8.77;;;1.98;;
36575;SDS011;45700;50.930;5.168;2023-01-16T04:10:19;0.00;;;0.00;;
36575;SDS011;45700;50.930;5.168;2023-01-16T04:14:21;0.45;;;0.45;;
36575;SDS011;45700;50.930;5.168;2023-01-16T04:18:25;2.20;;;2.00;;
36575;SDS011;45700;50.930;5.168;2023-01-16T04:22:28;0.00;;;0.00;;
36575;SDS011;45700;50.930;5.168;2023-01-16T04:26:29;0.00;;;0.00;;
36575;SDS011;45700;50.930;5.168;2023-01-16T04:30:30;0.00;;;0.00;;
36575;SDS011;45700;50.930;5.168;2023-01-16T04:34:31;1.45;;;1.35;;
36575;SDS011;45700;50.930;5.168;2023-01-16T04:38:32;0.00;;;0.00;;
36575;SDS011;45700;50.930;5.168;2023-01-16T04:42:34;1.92;;;0.80;;
36575;SDS011;45700;50.930;5.168;2023-01-16T04:46:35;4.03;;;1.40;;
36575;SDS011;45700;50.930;5.168;2023-01-16T04:50:39;0.00;;;0.00;;
36575;SDS011;45700;50.930;5.168;2023-01-16T04:54:40;1.13;;;0.43;;
36575;SDS011;45700;50.930;5.168;2023-01-16T04:58:41;0.10;;;0.10;;
36575;SDS011;45700;50.930;5.168;2023-01-16T05:02:42;0.10;;;0.10;;
36575;SDS011;45700;50.930;5.168;2023-01-16T05:06:43;0.10;;;0.10;;
36575;SDS011;45700;50.930;5.168;2023-01-16T05:10:44;0.28;;;0.28;;
36575;SDS011;45700;50.930;5.168;2023-01-16T05:14:45;0.00;;;0.00;;
36575;SDS011;45700;50.930;5.168;2023-01-16T05:18:46;0.00;;;0.00;;
36575;SDS011;45700;50.930;5.168;2023-01-16T05:22:47;0.00;;;0.00;;
36575;SDS011;45700;50.930;5.168;2023-01-16T05:26:48;0.10;;;0.10;;
36575;SDS011;45700;50.930;5.168;2023-01-16T05:30:49;0.00;;;0.00;;
36575;SDS011;45700;50.930;5.168;2023-01-16T05:34:50;0.03;;;0.03;;
36575;SDS011;45700;50.930;5.168;2023-01-16T05:38:51;0.00;;;0.00;;
36575;SDS011;45700;50.930;5.168;2023-01-16T05:42:54;0.10;;;0.10;;
36575;SDS011;45700;50.930;5.168;2023-01-16T05:46:55;0.00;;;0.00;;
36575;SDS011;45700;50.930;5.168;2023-01-16T05:50:56;0.10;;;0.10;;
36575;SDS011;45700;50.930;5.168;2023-01-16T05:54:57;0.00;;;0.00;;
36575;SDS011;45700;50.930;5.168;2023-01-16T05:58:58;0.10;;;0.10;;
36575;SDS011;45700;50.930;5.168;2023-01-16T06:02:59;0.00;;;0.00;;
36575;SDS011;45700;50.930;5.168;2023-01-16T06:07:00;0.00;;;0.00;;
36575;SDS011;45700;50.930;5.168;2023-01-16T06:11:01;0.10;;;0.10;;
36575;SDS011;45700;50.930;5.168;2023-01-16T06:15:02;0.00;;;0.00;;
36575;SDS011;45700;50.930;5.168;2023-01-16T06:19:03;0.10;;;0.10;;
36575;SDS011;45700;50.930;5.168;2023-01-16T06:23:04;6.70;;;1.10;;
36575;SDS011;45700;50.930;5.168;2023-01-16T06:27:05;0.30;;;0.30;;
36575;SDS011;45700;50.930;5.168;2023-01-16T06:31:06;0.00;;;0.00;;
36575;SDS011;45700;50.930;5.168;2023-01-16T06:35:07;0.00;;;0.00;;
36575;SDS011;45700;50.930;5.168;2023-01-16T06:39:10;0.10;;;0.10;;
36575;SDS011;45700;50.930;5.168;2023-01-16T06:43:11;0.05;;;0.05;;
36575;SDS011;45700;50.930;5.168;2023-01-16T06:47:12;0.20;;;0.20;;
36575;SDS011;45700;50.930;5.168;2023-01-16T06:51:15;0.45;;;0.22;;
36575;SDS011;45700;50.930;5.168;2023-01-16T06:55:16;0.10;;;0.10;;
36575;SDS011;45700;50.930;5.168;2023-01-16T06:59:17;0.22;;;0.22;;
36575;SDS011;45700;50.930;5.168;2023-01-16T07:03:18;0.08;;;0.08;;
36575;SDS011;45700;50.930;5.168;2023-01-16T07:07:20;0.60;;;0.45;;
36575;SDS011;45700;50.930;5.168;2023-01-16T07:11:21;0.80;;;0.30;;
36575;SDS011;45700;50.930;5.168;2023-01-16T07:15:22;0.13;;;0.13;;
36575;SDS011;45700;50.930;5.168;2023-01-16T07:24:03;0.10;;;0.10;;
36575;SDS011;45700;50.930;5.168;2023-01-16T07:28:04;0.30;;;0.30;;
36575;SDS011;45700;50.930;5.168;2023-01-16T07:32:06;0.00;;;0.00;;
36575;SDS011;45700;50.930;5.168;2023-01-16T07:36:07;0.32;;;0.32;;
36575;SDS011;45700;50.930;5.168;2023-01-16T07:40:08;0.22;;;0.22;;
36575;SDS011;45700;50.930;5.168;2023-01-16T07:44:09;0.10;;;0.10;;
36575;SDS011;45700;50.930;5.168;2023-01-16T07:48:10;0.00;;;0.00;;
36575;SDS011;45700;50.930;5.168;2023-01-16T07:52:11;0.45;;;0.30;;
36575;SDS011;45700;50.930;5.168;2023-01-16T07:56:12;0.90;;;0.05;;
36575;SDS011;45700;50.930;5.168;2023-01-16T08:00:13;0.17;;;0.17;;
36575;SDS011;45700;50.930;5.168;2023-01-16T08:04:14;0.30;;;0.30;;
36575;SDS011;45700;50.930;5.168;2023-01-16T08:08:16;0.10;;;0.10;;
36575;SDS011;45700;50.930;5.168;2023-01-16T08:12:18;0.10;;;0.10;;
36575;SDS011;45700;50.930;5.168;2023-01-16T08:16:19;0.20;;;0.20;;
36575;SDS011;45700;50.930;5.168;2023-01-16T08:20:20;1.48;;;0.30;;
36575;SDS011;45700;50.930;5.168;2023-01-16T08:24:22;0.30;;;0.20;;
36575;SDS011;45700;50.930;5.168;2023-01-16T08:28:25;0.10;;;0.10;;
36575;SDS011;45700;50.930;5.168;2023-01-16T08:32:26;0.10;;;0.10;;
36575;SDS011;45700;50.930;5.168;2023-01-16T08:36:27;0.00;;;0.00;;
36575;SDS011;45700;50.930;5.168;2023-01-16T08:40:28;0.00;;;0.00;;
36575;SDS011;45700;50.930;5.168;2023-01-16T08:44:29;0.00;;;0.00;;
36575;SDS011;45700;50.930;5.168;2023-01-16T08:48:49;0.10;;;0.10;;
36575;SDS011;45700;50.930;5.168;2023-01-16T08:57:11;1.15;;;0.10;;
36575;SDS011;45700;50.930;5.168;2023-01-16T09:01:12;0.00;;;0.00;;
36575;SDS011;45700;50.930;5.168;2023-01-16T09:05:13;0.40;;;0.30;;
36575;SDS011;45700;50.930;5.168;2023-01-16T09:09:14;0.10;;;0.10;;
36575;SDS011;45700;50.930;5.168;2023-01-16T09:13:15;0.80;;;0.20;;
36575;SDS011;45700;50.930;5.168;2023-01-16T09:17:35;2.53;;;0.32;;
36575;SDS011;45700;50.930;5.168;2023-01-16T09:21:36;0.10;;;0.10;;
36575;SDS011;45700;50.930;5.168;2023-01-16T09:25:36;0.43;;;0.20;;
36575;SDS011;45700;50.930;5.168;2023-01-16T09:29:38;0.55;;;0.20;;
36575;SDS011;45700;50.930;5.168;2023-01-16T09:33:39;0.10;;;0.10;;
36575;SDS011;45700;50.930;5.168;2023-01-16T09:37:44;0.00;;;0.00;;
36575;SDS011;45700;50.930;5.168;2023-01-16T09:42:03;0.10;;;0.10;;
36575;SDS011;45700;50.930;5.168;2023-01-16T09:46:27;0.00;;;0.00;;
36575;SDS011;45700;50.930;5.168;2023-01-16T09:50:46;0.10;;;0.10;;
36575;SDS011;45700;50.930;5.168;2023-01-16T09:54:51;0.10;;;0.10;;
36575;SDS011;45700;50.930;5.168;2023-01-16T09:59:34;0.10;;;0.10;;
36575;SDS011;45700;50.930;5.168;2023-01-16T10:03:37;0.08;;;0.08;;
36575;SDS011;45700;50.930;5.168;2023-01-16T10:11:46;0.20;;;0.20;;
36575;SDS011;45700;50.930;5.168;2023-01-16T10:36:56;3.30;;;0.32;;
36575;SDS011;45700;50.930;5.168;2023-01-16T10:40:58;0.10;;;0.10;;
36575;SDS011;45700;50.930;5.168;2023-01-16T10:49:28;0.38;;;0.30;;
36575;SDS011;45700;50.930;5.168;2023-01-16T10:53:29;0.45;;;0.20;;
36575;SDS011;45700;50.930;5.168;2023-01-16T10:57:31;0.00;;;0.00;;
36575;SDS011;45700;50.930;5.168;2023-01-16T11:01:32;0.08;;;0.08;;
36575;SDS011;45700;50.930;5.168;2023-01-16T11:05:35;0.00;;;0.00;;
36575;SDS011;45700;50.930;5.168;2023-01-16T11:09:36;0.05;;;0.05;;
36575;SDS011;45700;50.930;5.168;2023-01-16T11:13:37;1.10;;;0.20;;
36575;SDS011;45700;50.930;5.168;2023-01-16T11:17:57;0.30;;;0.30;;
36575;SDS011;45700;50.930;5.168;2023-01-16T11:26:18;0.35;;;0.32;;
36575;SDS011;45700;50.930;5.168;2023-01-16T11:30:21;0.15;;;0.15;;
36575;SDS011;45700;50.930;5.168;2023-01-16T11:34:22;0.10;;;0.10;;
36575;SDS011;45700;50.930;5.168;2023-01-16T11:38:27;0.65;;;0.20;;
36575;SDS011;45700;50.930;5.168;2023-01-16T11:42:29;0.10;;;0.10;;
36575;SDS011;45700;50.930;5.168;2023-01-16T11:46:49;0.10;;;0.10;;
36575;SDS011;45700;50.930;5.168;2023-01-16T11:50:54;0.00;;;0.00;;
36575;SDS011;45700;50.930;5.168;2023-01-16T11:54:57;0.00;;;0.00;;
36575;SDS011;45700;50.930;5.168;2023-01-16T12:03:18;0.50;;;0.50;;
36575;SDS011;45700;50.930;5.168;2023-01-16T12:07:23;1.40;;;0.65;;
36575;SDS011;45700;50.930;5.168;2023-01-16T12:24:10;0.20;;;0.20;;
36575;SDS011;45700;50.930;5.168;2023-01-16T12:36:39;0.10;;;0.10;;
36575;SDS011;45700;50.930;5.168;2023-01-16T13:06:35;0.00;;;0.00;;
36575;SDS011;45700;50.930;5.168;2023-01-16T13:10:39;0.10;;;0.10;;
36575;SDS011;45700;50.930;5.168;2023-01-16T13:15:02;1.27;;;0.10;;
36575;SDS011;45700;50.930;5.168;2023-01-16T13:19:14;0.00;;;0.00;;
36575;SDS011;45700;50.930;5.168;2023-01-16T13:23:23;0.10;;;0.10;;
36575;SDS011;45700;50.930;5.168;2023-01-16T13:27:47;0.10;;;0.10;;
36575;SDS011;45700;50.930;5.168;2023-01-16T13:31:51;0.10;;;0.10;;
36575;SDS011;45700;50.930;5.168;2023-01-16T13:40:31;0.10;;;0.10;;
36575;SDS011;45700;50.930;5.168;2023-01-16T13:44:23;0.10;;;0.10;;
36575;SDS011;45700;50.930;5.168;2023-01-16T13:48:49;0.32;;;0.32;;
36575;SDS011;45700;50.930;5.168;2023-01-16T13:52:56;0.10;;;0.10;;
36575;SDS011;45700;50.930;5.168;2023-01-16T13:57:01;0.00;;;0.00;;
36575;SDS011;45700;50.930;5.168;2023-01-16T14:01:04;0.43;;;0.30;;
36575;SDS011;45700;50.930;5.168;2023-01-16T14:17:28;0.20;;;0.20;;
36575;SDS011;45700;50.930;5.168;2023-01-16T14:25:38;0.10;;;0.10;;
36575;SDS011;45700;50.930;5.168;2023-01-16T14:29:44;0.10;;;0.10;;
36575;SDS011;45700;50.930;5.168;2023-01-16T14:33:48;0.20;;;0.20;;
36575;SDS011;45700;50.930;5.168;2023-01-16T14:37:54;0.10;;;0.10;;
36575;SDS011;45700;50.930;5.168;2023-01-16T14:41:56;0.10;;;0.10;;
36575;SDS011;45700;50.930;5.168;2023-01-16T14:50:42;0.10;;;0.10;;
36575;SDS011;45700;50.930;5.168;2023-01-16T14:55:04;0.57;;;0.32;;
36575;SDS011;45700;50.930;5.168;2023-01-16T14:59:16;0.28;;;0.28;;
36575;SDS011;45700;50.930;5.168;2023-01-16T15:03:23;0.65;;;0.65;;
36575;SDS011;45700;50.930;5.168;2023-01-16T15:11:37;0.57;;;0.52;;
36575;SDS011;45700;50.930;5.168;2023-01-16T15:19:56;0.35;;;0.32;;
36575;SDS011;45700;50.930;5.168;2023-01-16T15:24:20;0.50;;;0.40;;
36575;SDS011;45700;50.930;5.168;2023-01-16T15:32:28;2.20;;;1.27;;
36575;SDS011;45700;50.930;5.168;2023-01-16T15:36:36;0.60;;;0.60;;
36575;SDS011;45700;50.930;5.168;2023-01-16T15:44:40;2.75;;;1.80;;
36575;SDS011;45700;50.930;5.168;2023-01-16T15:53:20;0.55;;;0.55;;
36575;SDS011;45700;50.930;5.168;2023-01-16T15:57:22;0.60;;;0.52;;
36575;SDS011;45700;50.930;5.168;2023-01-16T16:01:24;1.08;;;0.47;;
36575;SDS011;45700;50.930;5.168;2023-01-16T16:05:26;1.33;;;0.25;;
36575;SDS011;45700;50.930;5.168;2023-01-16T16:09:27;2.15;;;0.32;;
36575;SDS011;45700;50.930;5.168;2023-01-16T16:13:29;1.00;;;0.40;;
36575;SDS011;45700;50.930;5.168;2023-01-16T16:17:34;0.75;;;0.30;;
36575;SDS011;45700;50.930;5.168;2023-01-16T16:21:54;0.60;;;0.40;;
36575;SDS011;45700;50.930;5.168;2023-01-16T16:26:14;6.22;;;0.90;;
36575;SDS011;45700;50.930;5.168;2023-01-16T16:30:16;0.47;;;0.47;;
36575;SDS011;45700;50.930;5.168;2023-01-16T16:34:21;0.80;;;0.80;;
36575;SDS011;45700;50.930;5.168;2023-01-16T16:38:29;0.77;;;0.68;;
36575;SDS011;45700;50.930;5.168;2023-01-16T16:46:32;1.75;;;0.90;;
36575;SDS011;45700;50.930;5.168;2023-01-16T16:50:34;0.40;;;0.40;;
36575;SDS011;45700;50.930;5.168;2023-01-16T16:54:35;1.35;;;0.50;;
36575;SDS011;45700;50.930;5.168;2023-01-16T16:58:45;0.32;;;0.32;;
36575;SDS011;45700;50.930;5.168;2023-01-16T17:06:48;0.47;;;0.47;;
36575;SDS011;45700;50.930;5.168;2023-01-16T17:10:52;1.05;;;0.80;;
36575;SDS011;45700;50.930;5.168;2023-01-16T17:14:53;0.90;;;0.75;;
36575;SDS011;45700;50.930;5.168;2023-01-16T17:19:39;0.55;;;0.55;;
36575;SDS011;45700;50.930;5.168;2023-01-16T17:23:16;0.68;;;0.68;;
36575;SDS011;45700;50.930;5.168;2023-01-16T17:27:17;1.38;;;1.23;;
36575;SDS011;45700;50.930;5.168;2023-01-16T17:31:18;1.52;;;1.13;;
36575;SDS011;45700;50.930;5.168;2023-01-16T17:35:19;2.08;;;1.23;;
36575;SDS011;45700;50.930;5.168;2023-01-16T17:39:20;2.28;;;1.65;;
36575;SDS011;45700;50.930;5.168;2023-01-16T17:43:22;3.78;;;2.00;;
36575;SDS011;45700;50.930;5.168;2023-01-16T17:47:41;3.00;;;1.85;;
36575;SDS011;45700;50.930;5.168;2023-01-16T17:51:42;1.70;;;1.40;;
36575;SDS011;45700;50.930;5.168;2023-01-16T17:55:45;4.88;;;3.05;;
36575;SDS011;45700;50.930;5.168;2023-01-16T17:59:52;3.88;;;2.55;;
36575;SDS011;45700;50.930;5.168;2023-01-16T18:03:54;4.72;;;3.03;;
36575;SDS011;45700;50.930;5.168;2023-01-16T18:08:08;2.05;;;1.70;;
36575;SDS011;45700;50.930;5.168;2023-01-16T18:12:09;3.58;;;2.50;;
36575;SDS011;45700;50.930;5.168;2023-01-16T18:16:29;2.92;;;2.10;;
36575;SDS011;45700;50.930;5.168;2023-01-16T18:25:12;2.10;;;1.42;;
36575;SDS011;45700;50.930;5.168;2023-01-16T18:29:13;1.98;;;0.90;;
36575;SDS011;45700;50.930;5.168;2023-01-16T18:33:14;0.73;;;0.70;;
36575;SDS011;45700;50.930;5.168;2023-01-16T18:37:15;0.98;;;0.75;;
36575;SDS011;45700;50.930;5.168;2023-01-16T18:41:17;1.67;;;1.40;;
36575;SDS011;45700;50.930;5.168;2023-01-16T18:45:37;2.72;;;1.00;;
36575;SDS011;45700;50.930;5.168;2023-01-16T18:54:17;3.47;;;1.87;;
36575;SDS011;45700;50.930;5.168;2023-01-16T18:58:38;5.55;;;1.33;;
36575;SDS011;45700;50.930;5.168;2023-01-16T19:07:00;7.72;;;1.52;;
36575;SDS011;45700;50.930;5.168;2023-01-16T19:11:02;3.80;;;1.40;;
36575;SDS011;45700;50.930;5.168;2023-01-16T19:15:03;6.38;;;1.23;;
36575;SDS011;45700;50.930;5.168;2023-01-16T19:19:05;6.35;;;1.63;;
36575;SDS011;45700;50.930;5.168;2023-01-16T19:23:06;0.68;;;0.60;;
36575;SDS011;45700;50.930;5.168;2023-01-16T19:27:07;1.55;;;0.70;;
36575;SDS011;45700;50.930;5.168;2023-01-16T19:31:08;2.83;;;0.60;;
36575;SDS011;45700;50.930;5.168;2023-01-16T19:35:10;0.75;;;0.75;;
36575;SDS011;45700;50.930;5.168;2023-01-16T19:39:12;0.00;;;0.00;;
36575;SDS011;45700;50.930;5.168;2023-01-16T19:43:13;0.10;;;0.10;;
36575;SDS011;45700;50.930;5.168;2023-01-16T19:47:33;0.15;;;0.15;;
36575;SDS011;45700;50.930;5.168;2023-01-16T19:51:34;3.40;;;0.20;;
36575;SDS011;45700;50.930;5.168;2023-01-16T19:55:35;0.10;;;0.10;;
36575;SDS011;45700;50.930;5.168;2023-01-16T19:59:37;0.15;;;0.15;;
36575;SDS011;45700;50.930;5.168;2023-01-16T20:03:38;0.00;;;0.00;;
36575;SDS011;45700;50.930;5.168;2023-01-16T20:07:39;0.00;;;0.00;;
36575;SDS011;45700;50.930;5.168;2023-01-16T20:11:40;0.10;;;0.10;;
36575;SDS011;45700;50.930;5.168;2023-01-16T20:16:01;0.00;;;0.00;;
36575;SDS011;45700;50.930;5.168;2023-01-16T20:20:02;0.20;;;0.20;;
36575;SDS011;45700;50.930;5.168;2023-01-16T20:24:05;0.00;;;0.00;;
36575;SDS011;45700;50.930;5.168;2023-01-16T20:28:06;0.20;;;0.20;;
36575;SDS011;45700;50.930;5.168;2023-01-16T20:32:07;1.40;;;0.90;;
36575;SDS011;45700;50.930;5.168;2023-01-16T20:36:08;0.20;;;0.20;;
36575;SDS011;45700;50.930;5.168;2023-01-16T20:40:09;0.10;;;0.10;;
36575;SDS011;45700;50.930;5.168;2023-01-16T20:44:14;0.80;;;0.28;;
36575;SDS011;45700;50.930;5.168;2023-01-16T20:48:35;0.22;;;0.22;;
36575;SDS011;45700;50.930;5.168;2023-01-16T20:52:36;0.52;;;0.50;;
36575;SDS011;45700;50.930;5.168;2023-01-16T20:56:39;0.55;;;0.20;;
36575;SDS011;45700;50.930;5.168;2023-01-16T21:00:40;0.10;;;0.10;;
36575;SDS011;45700;50.930;5.168;2023-01-16T21:04:41;0.15;;;0.15;;
36575;SDS011;45700;50.930;5.168;2023-01-16T21:08:43;7.97;;;1.98;;
36575;SDS011;45700;50.930;5.168;2023-01-16T21:12:44;0.30;;;0.30;;
36575;SDS011;45700;50.930;5.168;2023-01-16T21:17:04;0.10;;;0.10;;
36575;SDS011;45700;50.930;5.168;2023-01-16T21:21:41;0.57;;;0.52;;
36575;SDS011;45700;50.930;5.168;2023-01-16T21:25:54;0.30;;;0.30;;
36575;SDS011;45700;50.930;5.168;2023-01-16T21:29:57;0.20;;;0.20;;
36575;SDS011;45700;50.930;5.168;2023-01-16T21:33:58;0.10;;;0.10;;
36575;SDS011;45700;50.930;5.168;2023-01-16T21:37:59;3.60;;;0.52;;
36575;SDS011;45700;50.930;5.168;2023-01-16T21:42:00;0.85;;;0.63;;
36575;SDS011;45700;50.930;5.168;2023-01-16T21:50:30;0.00;;;0.00;;
36575;SDS011;45700;50.930;5.168;2023-01-16T21:54:31;1.33;;;0.75;;
36575;SDS011;45700;50.930;5.168;2023-01-16T21:58:32;0.00;;;0.00;;
36575;SDS011;45700;50.930;5.168;2023-01-16T22:02:33;0.00;;;0.00;;
36575;SDS011;45700;50.930;5.168;2023-01-16T22:06:37;0.20;;;0.20;;
36575;SDS011;45700;50.930;5.168;2023-01-16T22:10:38;0.10;;;0.10;;
36575;SDS011;45700;50.930;5.168;2023-01-16T22:14:59;0.10;;;0.10;;
36575;SDS011;45700;50.930;5.168;2023-01-16T22:23:24;0.43;;;0.28;;
36575;SDS011;45700;50.930;5.168;2023-01-16T22:27:25;0.10;;;0.10;;
36575;SDS011;45700;50.930;5.168;2023-01-16T22:31:26;0.00;;;0.00;;
36575;SDS011;45700;50.930;5.168;2023-01-16T22:35:27;0.10;;;0.10;;
36575;SDS011;45700;50.930;5.168;2023-01-16T22:39:28;0.00;;;0.00;;
36575;SDS011;45700;50.930;5.168;2023-01-16T22:43:29;0.00;;;0.00;;
36575;SDS011;45700;50.930;5.168;2023-01-16T22:47:51;0.10;;;0.10;;
36575;SDS011;45700;50.930;5.168;2023-01-16T22:51:53;0.10;;;0.10;;
36575;SDS011;45700;50.930;5.168;2023-01-16T22:55:54;0.00;;;0.00;;
36575;SDS011;45700;50.930;5.168;2023-01-16T22:59:55;0.08;;;0.08;;
36575;SDS011;45700;50.930;5.168;2023-01-16T23:03:56;0.47;;;0.47;;
36575;SDS011;45700;50.930;5.168;2023-01-16T23:07:59;0.10;;;0.10;;
36575;SDS011;45700;50.930;5.168;2023-01-16T23:12:00;0.10;;;0.10;;
36575;SDS011;45700;50.930;5.168;2023-01-16T23:16:01;0.00;;;0.00;;
36575;SDS011;45700;50.930;5.168;2023-01-16T23:20:02;0.10;;;0.10;;
36575;SDS011;45700;50.930;5.168;2023-01-16T23:24:05;0.00;;;0.00;;
36575;SDS011;45700;50.930;5.168;2023-01-16T23:28:06;0.00;;;0.00;;
36575;SDS011;45700;50.930;5.168;2023-01-16T23:32:08;0.10;;;0.10;;
36575;SDS011;45700;50.930;5.168;2023-01-16T23:36:10;0.00;;;0.00;;
36575;SDS011;45700;50.930;5.168;2023-01-16T23:40:11;0.90;;;0.35;;
36575;SDS011;45700;50.930;5.168;2023-01-16T23:44:13;0.00;;;0.00;;
36575;SDS011;45700;50.930;5.168;2023-01-16T23:48:35;0.00;;;0.00;;
36575;SDS011;45700;50.930;5.168;2023-01-16T23:52:38;1.20;;;0.80;;
36575;SDS011;45700;50.930;5.168;2023-01-16T23:56:39;1.67;;;0.40;;
